createdAt,value
2023-03-05T00:00:56.566Z,8.57
2023-03-05T00:03:23.796Z,5.73
2023-03-05T00:05:56.637Z,6.50
2023-03-05T00:08:23.920Z,10.97
2023-03-05T00:11:01.212Z,11.40
2023-03-05T00:13:28.495Z,16.13
2023-03-05T00:15:55.890Z,12.30
2023-03-05T00:18:23.527Z,10.80
2023-03-05T00:20:51.193Z,9.10
2023-03-05T00:23:18.734Z,12.50
2023-03-05T00:25:46.677Z,7.37
2023-03-05T00:28:13.999Z,7.73
2023-03-05T00:30:41.539Z,20.37
2023-03-05T00:33:09.255Z,6.20
2023-03-05T00:35:43.546Z,8.10
2023-03-05T00:38:11.218Z,13.37
2023-03-05T00:40:39.000Z,11.97
2023-03-05T00:43:06.637Z,11.03
2023-03-05T00:45:33.808Z,5.73
2023-03-05T00:48:01.058Z,6.83
2023-03-05T00:50:28.252Z,7.20
2023-03-05T00:52:55.580Z,8.80
2023-03-05T00:55:22.796Z,9.30
2023-03-05T00:57:50.037Z,5.90
2023-03-05T01:00:17.503Z,10.33
2023-03-05T01:02:44.819Z,9.57
2023-03-05T01:05:13.209Z,6.40
2023-03-05T01:07:40.443Z,8.73
2023-03-05T01:10:08.378Z,9.93
2023-03-05T01:12:35.584Z,10.83
2023-03-05T01:15:02.998Z,5.43
2023-03-05T01:17:30.102Z,6.47
2023-03-05T01:19:57.242Z,6.37
2023-03-05T01:22:24.386Z,13.07
2023-03-05T01:24:51.513Z,7.57
2023-03-05T01:27:18.626Z,6.37
2023-03-05T01:29:45.775Z,6.27
2023-03-05T01:32:12.996Z,7.27
2023-03-05T01:34:41.888Z,9.97
2023-03-05T01:37:09.426Z,4.17
2023-03-05T01:39:36.665Z,8.33
2023-03-05T01:42:04.279Z,4.13
2023-03-05T01:44:32.153Z,5.40
2023-03-05T01:46:59.366Z,8.83
2023-03-05T01:49:28.202Z,7.10
2023-03-05T01:51:59.526Z,8.47
2023-03-05T01:54:28.875Z,8.80
2023-03-05T01:56:57.715Z,7.07
2023-03-05T01:59:26.092Z,4.87
2023-03-05T02:01:55.642Z,9.93
2023-03-05T02:04:24.511Z,7.97
2023-03-05T02:06:51.685Z,5.90
2023-03-05T02:09:23.323Z,10.20
2023-03-05T02:11:51.045Z,7.63
2023-03-05T02:14:18.544Z,7.43
2023-03-05T02:16:45.823Z,9.30
2023-03-05T02:19:13.388Z,8.73
2023-03-05T02:21:42.144Z,12.43
2023-03-05T02:24:11.873Z,11.37
2023-03-05T02:26:39.433Z,9.67
2023-03-05T02:29:08.794Z,11.87
2023-03-05T02:31:36.199Z,12.23
2023-03-05T02:34:03.414Z,12.70
2023-03-05T02:36:30.575Z,12.17
2023-03-05T02:38:59.174Z,11.87
2023-03-05T02:41:26.632Z,11.63
2023-03-05T02:43:53.814Z,10.10
2023-03-05T02:46:21.036Z,8.60
2023-03-05T02:48:48.240Z,9.53
2023-03-05T02:51:15.444Z,20.90
2023-03-05T02:53:42.576Z,7.90
2023-03-05T02:56:09.867Z,6.57
2023-03-05T02:58:37.053Z,8.07
2023-03-05T03:01:04.374Z,7.50
2023-03-05T03:03:31.833Z,6.60
2023-03-05T03:05:59.020Z,6.47
2023-03-05T03:08:26.392Z,10.27
2023-03-05T03:10:53.621Z,10.60
2023-03-05T03:13:20.804Z,6.47
2023-03-05T03:15:47.959Z,5.73
2023-03-05T03:18:15.135Z,6.23
2023-03-05T03:20:42.250Z,7.93
2023-03-05T03:23:09.508Z,10.27
2023-03-05T03:25:36.668Z,4.60
2023-03-05T03:28:03.854Z,9.73
2023-03-05T03:30:31.006Z,15.67
2023-03-05T03:32:58.613Z,8.20
2023-03-05T03:35:25.816Z,5.20
2023-03-05T03:37:53.008Z,4.43
2023-03-05T03:40:20.168Z,5.73
2023-03-05T03:42:47.349Z,6.20
2023-03-05T03:45:14.650Z,7.83
2023-03-05T03:47:41.863Z,8.73
2023-03-05T03:50:09.333Z,6.50
2023-03-05T03:52:36.498Z,5.70
2023-03-05T03:55:03.627Z,8.80
2023-03-05T03:57:30.816Z,3.67
2023-03-05T03:59:57.951Z,5.27
2023-03-05T04:02:25.188Z,5.93
2023-03-05T04:04:52.768Z,4.27
2023-03-05T04:07:20.080Z,6.07
2023-03-05T04:09:47.292Z,4.53
2023-03-05T04:12:18.071Z,5.60
2023-03-05T04:14:46.589Z,6.50
2023-03-05T04:17:14.257Z,8.60
2023-03-05T04:19:41.712Z,5.67
2023-03-05T04:22:13.023Z,10.90
2023-03-05T04:24:40.228Z,5.70
2023-03-05T04:27:07.453Z,4.30
2023-03-05T04:29:35.145Z,11.23
2023-03-05T04:32:02.486Z,7.90
2023-03-05T04:34:29.728Z,9.63
2023-03-05T04:36:56.894Z,9.50
2023-03-05T04:39:24.318Z,9.53
2023-03-05T04:41:51.493Z,8.33
2023-03-05T04:44:19.197Z,7.30
2023-03-05T04:46:46.492Z,6.17
2023-03-05T04:49:13.700Z,3.73
2023-03-05T04:51:40.924Z,6.30
2023-03-05T04:54:08.228Z,5.90
2023-03-05T04:56:35.548Z,6.47
2023-03-05T04:59:02.694Z,4.50
2023-03-05T05:01:30.033Z,4.40
2023-03-05T05:03:57.308Z,7.37
2023-03-05T05:06:24.441Z,7.67
2023-03-05T05:08:51.574Z,9.30
2023-03-05T05:11:18.677Z,7.60
2023-03-05T05:13:45.874Z,5.60
2023-03-05T05:16:13.141Z,15.97
2023-03-05T05:18:40.356Z,10.57
2023-03-05T05:21:08.829Z,8.20
2023-03-05T05:23:36.145Z,6.47
2023-03-05T05:26:04.269Z,11.63
2023-03-05T05:28:31.574Z,10.33
2023-03-05T05:30:58.769Z,10.10
2023-03-05T05:33:26.309Z,7.47
2023-03-05T05:35:53.613Z,7.03
2023-03-05T05:38:20.817Z,10.47
2023-03-05T05:40:48.000Z,8.73
2023-03-05T05:43:15.242Z,9.00
2023-03-05T05:45:42.818Z,7.27
2023-03-05T05:48:10.147Z,11.97
2023-03-05T05:50:39.313Z,9.73
2023-03-05T05:53:06.542Z,8.33
2023-03-05T05:55:33.789Z,12.77
2023-03-05T05:58:00.982Z,4.87
2023-03-05T06:00:28.152Z,12.47
2023-03-05T06:02:55.362Z,4.87
2023-03-05T06:05:22.658Z,10.43
2023-03-05T06:07:49.784Z,5.37
2023-03-05T06:10:16.965Z,8.07
2023-03-05T06:12:44.228Z,10.73
2023-03-05T06:15:11.505Z,7.93
2023-03-05T06:17:38.626Z,8.30
2023-03-05T06:20:07.000Z,5.30
2023-03-05T06:22:37.270Z,11.57
2023-03-05T06:25:04.846Z,9.27
2023-03-05T06:27:31.984Z,9.87
2023-03-05T06:29:59.158Z,9.00
2023-03-05T06:32:26.393Z,13.20
2023-03-05T06:34:53.602Z,18.97
2023-03-05T06:37:20.979Z,7.60
2023-03-05T06:39:48.263Z,8.30
2023-03-05T06:42:17.743Z,10.07
2023-03-05T06:44:46.526Z,11.97
2023-03-05T06:47:14.604Z,9.37
2023-03-05T06:49:41.928Z,7.87
2023-03-05T06:52:10.239Z,10.73
2023-03-05T06:54:37.480Z,8.10
2023-03-05T06:57:04.718Z,8.70
2023-03-05T06:59:31.923Z,8.50
2023-03-05T07:01:59.045Z,10.47
2023-03-05T07:04:26.306Z,6.50
2023-03-05T07:06:53.581Z,12.17
2023-03-05T07:09:20.722Z,8.93
2023-03-05T07:11:47.818Z,12.07
2023-03-05T07:14:15.088Z,7.57
2023-03-05T07:16:42.253Z,7.83
2023-03-05T07:19:11.045Z,7.77
2023-03-05T07:21:39.862Z,7.57
2023-03-05T07:24:07.962Z,7.93
2023-03-05T07:26:35.126Z,6.63
2023-03-05T07:29:02.801Z,8.20
2023-03-05T07:31:33.210Z,5.87
2023-03-05T07:34:01.366Z,8.60
2023-03-05T07:36:28.792Z,9.23
2023-03-05T07:38:56.031Z,15.80
2023-03-05T07:41:23.735Z,9.40
2023-03-05T07:43:52.248Z,10.37
2023-03-05T07:46:20.683Z,9.10
2023-03-05T07:48:48.040Z,7.80
2023-03-05T07:51:16.483Z,7.30
2023-03-05T07:53:44.024Z,9.50
2023-03-05T07:56:11.323Z,13.27
2023-03-05T07:58:38.556Z,11.20
2023-03-05T08:01:13.436Z,12.87
2023-03-05T08:03:41.388Z,8.37
2023-03-05T08:06:08.971Z,7.63
2023-03-05T08:08:36.256Z,7.43
2023-03-05T08:11:04.629Z,12.13
2023-03-05T08:13:31.921Z,10.30
2023-03-05T08:15:59.319Z,8.93
2023-03-05T08:18:26.584Z,11.23
2023-03-05T08:20:53.900Z,11.37
2023-03-05T08:23:21.040Z,9.60
2023-03-05T08:25:48.384Z,13.50
2023-03-05T08:28:19.582Z,9.20
2023-03-05T08:30:47.790Z,12.50
2023-03-05T08:33:15.466Z,13.20
2023-03-05T08:35:42.777Z,12.00
2023-03-05T08:38:10.039Z,8.03
2023-03-05T08:40:37.235Z,7.03
2023-03-05T08:43:05.810Z,11.13
2023-03-05T08:45:33.073Z,12.83
2023-03-05T08:48:00.296Z,11.33
2023-03-05T08:50:27.576Z,15.83
2023-03-05T08:52:56.939Z,8.33
2023-03-05T08:55:24.148Z,11.97
2023-03-05T08:57:51.420Z,11.03
2023-03-05T09:00:18.874Z,14.60
2023-03-05T09:02:46.213Z,14.03
2023-03-05T09:05:13.447Z,14.37
2023-03-05T09:07:40.765Z,7.47
2023-03-05T09:10:11.430Z,8.47
2023-03-05T09:12:38.665Z,13.00
2023-03-05T09:15:08.230Z,10.20
2023-03-05T09:17:36.022Z,13.87
2023-03-05T09:20:03.593Z,17.43
2023-03-05T09:22:30.860Z,13.20
2023-03-05T09:24:58.214Z,11.03
2023-03-05T09:27:26.016Z,13.20
2023-03-05T09:29:53.305Z,9.47
2023-03-05T09:32:20.551Z,12.70
2023-03-05T09:34:47.727Z,12.70
2023-03-05T09:37:14.905Z,8.87
2023-03-05T09:39:42.046Z,11.07
2023-03-05T09:42:29.046Z,16.93
2023-03-05T09:45:08.129Z,11.50
2023-03-05T09:47:47.573Z,7.63
2023-03-05T09:50:32.474Z,8.70
2023-03-05T09:53:06.252Z,10.20
2023-03-05T09:55:41.136Z,11.93
2023-03-05T09:58:25.117Z,13.10
2023-03-05T10:00:56.701Z,8.33
2023-03-05T10:03:29.324Z,9.23
2023-03-05T10:06:15.008Z,6.40
2023-03-05T10:08:54.119Z,8.47
2023-03-05T10:11:30.402Z,8.23
2023-03-05T10:13:57.653Z,6.73
2023-03-05T10:16:43.419Z,10.83
2023-03-05T10:19:29.109Z,7.17
2023-03-05T10:22:08.194Z,7.27
2023-03-05T10:25:07.710Z,6.30
2023-03-05T10:27:54.213Z,7.13
2023-03-05T10:30:21.596Z,10.50
2023-03-05T10:33:00.850Z,7.03
2023-03-05T10:36:03.672Z,6.20
2023-03-05T10:38:49.313Z,9.43
2023-03-05T10:41:22.461Z,6.77
2023-03-05T10:43:54.352Z,6.27
2023-03-05T10:46:22.580Z,6.60
2023-03-05T10:48:49.673Z,8.03
2023-03-05T10:51:39.149Z,5.07
2023-03-05T10:54:12.517Z,3.23
2023-03-05T10:56:39.794Z,4.97
2023-03-05T10:59:06.927Z,3.10
2023-03-05T11:01:34.414Z,3.30
2023-03-05T11:04:06.492Z,3.77
2023-03-05T11:06:36.760Z,4.77
2023-03-05T11:09:32.298Z,7.17
2023-03-05T11:12:05.885Z,5.57
2023-03-05T11:14:33.678Z,6.23
2023-03-05T11:17:01.901Z,5.07
2023-03-05T11:19:35.372Z,5.50
2023-03-05T11:22:15.649Z,9.33
2023-03-05T11:24:43.013Z,8.17
2023-03-05T11:27:24.427Z,4.87
2023-03-05T11:29:51.741Z,6.77
2023-03-05T11:32:23.397Z,6.43
2023-03-05T11:34:50.619Z,4.33
2023-03-05T11:37:25.386Z,7.17
2023-03-05T11:40:10.985Z,4.47
2023-03-05T11:42:40.976Z,4.53
2023-03-05T11:45:15.173Z,4.30
2023-03-05T11:47:48.286Z,4.27
2023-03-05T11:50:18.451Z,5.40
2023-03-05T11:53:14.837Z,4.10
2023-03-05T11:55:44.695Z,3.13
2023-03-05T11:58:20.839Z,3.00
2023-03-05T12:00:48.671Z,2.47
2023-03-05T12:03:17.054Z,4.33
2023-03-05T12:05:46.401Z,3.50
2023-03-05T12:08:16.206Z,2.67
2023-03-05T12:10:43.365Z,3.43
2023-03-05T12:13:13.523Z,3.17
2023-03-05T12:15:58.926Z,3.47
2023-03-05T12:18:26.047Z,3.97
2023-03-05T12:21:06.932Z,2.53
2023-03-05T12:24:06.429Z,5.93
2023-03-05T12:26:52.519Z,3.53
2023-03-05T12:29:30.302Z,3.23
2023-03-05T12:31:58.084Z,3.60
2023-03-05T12:34:48.904Z,3.27
2023-03-05T12:37:36.363Z,4.03
2023-03-05T12:40:10.711Z,6.80
2023-03-05T12:42:43.926Z,3.57
2023-03-05T12:45:19.158Z,4.30
2023-03-05T12:47:46.354Z,2.60
2023-03-05T12:50:28.921Z,5.53
2023-03-05T12:53:05.317Z,2.40
2023-03-05T12:55:36.675Z,3.83
2023-03-05T12:58:05.885Z,4.53
2023-03-05T13:00:39.151Z,3.67
2023-03-05T13:03:10.127Z,4.07
2023-03-05T13:05:38.283Z,4.83
2023-03-05T13:08:36.055Z,4.03
2023-03-05T13:11:10.578Z,3.27
2023-03-05T13:13:42.395Z,2.93
2023-03-05T13:16:24.074Z,2.10
2023-03-05T13:18:51.979Z,1.57
2023-03-05T13:21:20.375Z,1.83
2023-03-05T13:23:57.860Z,2.10
2023-03-05T13:26:26.213Z,2.40
2023-03-05T13:29:12.087Z,3.27
2023-03-05T13:31:44.155Z,3.00
2023-03-05T13:34:19.430Z,4.30
2023-03-05T13:36:47.883Z,3.33
2023-03-05T13:39:23.002Z,2.67
2023-03-05T13:41:57.853Z,4.03
2023-03-05T13:44:25.122Z,4.17
2023-03-05T13:46:52.274Z,4.23
2023-03-05T13:49:19.486Z,3.23
2023-03-05T13:52:06.067Z,3.97
2023-03-05T13:54:33.394Z,2.87
2023-03-05T13:57:02.250Z,7.23
2023-03-05T13:59:31.132Z,4.13
2023-03-05T14:01:59.344Z,3.67
2023-03-05T14:04:28.462Z,3.17
2023-03-05T14:07:05.046Z,3.63
2023-03-05T14:09:43.506Z,4.33
2023-03-05T14:12:32.532Z,3.60
2023-03-05T14:15:00.142Z,6.23
2023-03-05T14:17:36.674Z,9.90
2023-03-05T14:20:07.876Z,4.70
2023-03-05T14:22:36.607Z,3.97
2023-03-05T14:25:04.909Z,8.20
2023-03-05T14:27:34.191Z,4.50
2023-03-05T14:30:01.556Z,6.17
2023-03-05T14:32:38.651Z,9.67
2023-03-05T14:35:06.778Z,4.20
2023-03-05T14:37:38.416Z,4.10
2023-03-05T14:40:14.475Z,3.57
2023-03-05T14:42:50.872Z,4.70
2023-03-05T14:45:19.356Z,3.47
2023-03-05T14:47:47.042Z,3.77
2023-03-05T14:50:18.526Z,3.53
2023-03-05T14:52:46.447Z,4.03
2023-03-05T14:55:15.013Z,3.40
2023-03-05T14:57:42.240Z,5.10
2023-03-05T15:00:28.722Z,3.70
2023-03-05T15:02:55.966Z,3.40
2023-03-05T15:05:23.227Z,3.93
2023-03-05T15:07:50.500Z,3.10
2023-03-05T15:10:18.813Z,2.70
2023-03-05T15:12:46.326Z,3.30
2023-03-05T15:15:14.693Z,4.60
2023-03-05T15:17:43.184Z,3.43
2023-03-05T15:20:13.068Z,8.27
2023-03-05T15:22:40.258Z,5.53
2023-03-05T15:25:07.572Z,5.70
2023-03-05T15:27:34.798Z,3.63
2023-03-05T15:30:02.014Z,4.77
2023-03-05T15:32:30.738Z,2.70
2023-03-05T15:34:58.975Z,4.80
2023-03-05T15:37:26.217Z,3.13
2023-03-05T15:39:53.905Z,3.90
2023-03-05T15:42:21.090Z,3.13
2023-03-05T15:44:48.413Z,4.27
2023-03-05T15:47:15.648Z,2.73
2023-03-05T15:49:42.838Z,2.40
2023-03-05T15:52:10.257Z,3.30
2023-03-05T15:54:37.506Z,6.37
2023-03-05T15:57:08.748Z,4.00
2023-03-05T15:59:35.977Z,2.87
2023-03-05T16:02:03.221Z,5.20
2023-03-05T16:04:30.453Z,2.17
2023-03-05T16:06:59.218Z,5.63
2023-03-05T16:09:27.284Z,3.53
2023-03-05T16:11:54.543Z,2.40
2023-03-05T16:14:26.369Z,5.90
2023-03-05T16:16:54.288Z,4.63
2023-03-05T16:19:22.461Z,2.97
2023-03-05T16:21:49.710Z,2.80
2023-03-05T16:24:16.900Z,6.87
2023-03-05T16:26:44.187Z,3.23
2023-03-05T16:29:11.968Z,4.33
2023-03-05T16:31:40.603Z,12.47
2023-03-05T16:34:08.123Z,6.93
2023-03-05T16:36:35.790Z,5.50
2023-03-05T16:39:04.471Z,6.50
2023-03-05T16:41:31.643Z,5.43
2023-03-05T16:43:59.077Z,5.33
2023-03-05T16:46:27.682Z,4.63
2023-03-05T16:48:54.896Z,3.93
2023-03-05T16:51:22.268Z,5.00
2023-03-05T16:53:49.584Z,4.70
2023-03-05T16:56:17.124Z,7.27
2023-03-05T16:58:44.308Z,6.30
2023-03-05T17:01:19.373Z,4.83
2023-03-05T17:03:47.546Z,4.50
2023-03-05T17:06:19.688Z,6.87
2023-03-05T17:08:47.651Z,5.23
2023-03-05T17:11:15.291Z,6.27
2023-03-05T17:13:42.511Z,4.27
2023-03-05T17:16:10.670Z,5.53
2023-03-05T17:18:37.947Z,11.33
2023-03-05T17:21:07.347Z,6.47
2023-03-05T17:23:35.307Z,7.97
2023-03-05T17:26:09.818Z,5.77
2023-03-05T17:28:37.065Z,7.67
2023-03-05T17:31:04.564Z,8.20
2023-03-05T17:33:32.723Z,5.57
2023-03-05T17:36:00.379Z,6.93
2023-03-05T17:38:27.944Z,7.27
2023-03-05T17:40:55.178Z,5.40
2023-03-05T17:43:22.544Z,8.40
2023-03-05T17:45:49.969Z,10.30
2023-03-05T17:48:17.307Z,9.37
2023-03-05T17:50:45.232Z,13.70
2023-03-05T17:53:12.785Z,6.13
2023-03-05T17:55:40.625Z,9.93
2023-03-05T17:58:08.032Z,9.67
2023-03-05T18:00:35.341Z,8.13
2023-03-05T18:03:02.865Z,6.43
2023-03-05T18:05:30.363Z,7.77
2023-03-05T18:07:59.001Z,8.40
2023-03-05T18:10:26.736Z,10.17
2023-03-05T18:12:54.266Z,7.13
2023-03-05T18:15:22.402Z,5.43
2023-03-05T18:17:49.593Z,7.10
2023-03-05T18:20:24.471Z,4.60
2023-03-05T18:22:51.789Z,4.40
2023-03-05T18:25:19.065Z,4.03
2023-03-05T18:27:46.313Z,5.23
2023-03-05T18:30:13.952Z,4.00
2023-03-05T18:32:41.175Z,4.93
2023-03-05T18:35:08.647Z,6.73
2023-03-05T18:37:38.125Z,4.80
2023-03-05T18:40:09.652Z,5.90
2023-03-05T18:42:37.462Z,6.77
2023-03-05T18:45:10.266Z,6.57
2023-03-05T18:47:41.970Z,6.37
2023-03-05T18:50:14.940Z,7.13
2023-03-05T18:52:42.597Z,5.50
2023-03-05T18:55:13.412Z,7.13
2023-03-05T18:57:40.586Z,5.70
2023-03-05T19:00:08.039Z,8.50
2023-03-05T19:02:35.547Z,7.30
2023-03-05T19:05:03.001Z,5.43
2023-03-05T19:07:30.277Z,6.03
2023-03-05T19:10:02.294Z,6.90
2023-03-05T19:12:35.152Z,6.80
2023-03-05T19:15:03.357Z,6.87
2023-03-05T19:17:31.610Z,12.53
2023-03-05T19:19:59.730Z,6.23
2023-03-05T19:22:29.445Z,7.60
2023-03-05T19:24:56.791Z,7.87
2023-03-05T19:27:23.990Z,9.77
2023-03-05T19:29:51.337Z,7.40
2023-03-05T19:32:18.839Z,6.23
2023-03-05T19:34:46.071Z,8.73
2023-03-05T19:37:13.679Z,7.87
2023-03-05T19:39:41.203Z,7.50
2023-03-05T19:42:08.851Z,6.57
2023-03-05T19:44:36.142Z,7.20
2023-03-05T19:47:03.344Z,8.17
2023-03-05T19:49:30.770Z,6.57
2023-03-05T19:51:58.230Z,7.43
2023-03-05T19:54:25.932Z,8.60
2023-03-05T19:56:55.586Z,9.30
2023-03-05T19:59:23.596Z,11.83
2023-03-05T20:01:50.870Z,13.67
2023-03-05T20:04:19.921Z,16.43
2023-03-05T20:06:47.393Z,17.80
2023-03-05T20:09:14.936Z,15.23
2023-03-05T20:11:42.368Z,16.07
2023-03-05T20:14:13.214Z,14.07
2023-03-05T20:16:40.603Z,16.93
2023-03-05T20:19:10.131Z,20.77
2023-03-05T20:21:41.334Z,21.33
2023-03-05T20:24:10.084Z,18.47
2023-03-05T20:26:37.842Z,15.97
2023-03-05T20:29:05.370Z,14.23
2023-03-05T20:31:37.297Z,15.87
2023-03-05T20:34:05.556Z,17.73
2023-03-05T20:36:34.624Z,15.23
2023-03-05T20:39:05.167Z,12.40
2023-03-05T20:41:32.638Z,14.47
2023-03-05T20:43:59.899Z,17.03
2023-03-05T20:46:29.038Z,11.20
2023-03-05T20:48:59.004Z,12.27
2023-03-05T20:51:28.222Z,15.70
2023-03-05T20:53:58.252Z,11.50
2023-03-05T20:56:29.236Z,11.37
2023-03-05T20:58:58.266Z,10.37
2023-03-05T21:01:25.818Z,12.40
2023-03-05T21:03:53.821Z,11.63
2023-03-05T21:06:21.017Z,11.67
2023-03-05T21:08:48.166Z,12.80
2023-03-05T21:11:15.397Z,12.23
2023-03-05T21:13:44.271Z,11.10
2023-03-05T21:16:14.264Z,10.57
2023-03-05T21:18:41.483Z,12.27
2023-03-05T21:21:08.972Z,10.40
2023-03-05T21:23:36.477Z,12.33
2023-03-05T21:26:04.209Z,8.77
2023-03-05T21:28:31.812Z,12.80
2023-03-05T21:30:59.009Z,8.67
2023-03-05T21:33:27.895Z,9.83
2023-03-05T21:35:56.981Z,9.80
2023-03-05T21:38:25.549Z,9.60
2023-03-05T21:40:54.317Z,10.03
2023-03-05T21:43:22.637Z,7.37
2023-03-05T21:45:52.549Z,9.00
2023-03-05T21:48:20.340Z,8.20
2023-03-05T21:50:47.966Z,6.67
2023-03-05T21:53:16.707Z,9.77
2023-03-05T21:56:03.247Z,9.57
2023-03-05T21:58:31.582Z,9.07
2023-03-05T22:00:58.954Z,8.10
2023-03-05T22:03:26.457Z,8.43
2023-03-05T22:05:54.295Z,7.27
2023-03-05T22:08:22.002Z,7.50
2023-03-05T22:10:49.452Z,6.67
2023-03-05T22:13:18.035Z,6.87
2023-03-05T22:15:52.768Z,7.03
2023-03-05T22:18:24.445Z,5.63
2023-03-05T22:20:51.984Z,10.50
2023-03-05T22:23:22.559Z,5.87
2023-03-05T22:25:56.665Z,6.70
2023-03-05T22:28:23.791Z,8.50
2023-03-05T22:30:50.959Z,15.93
2023-03-05T22:33:18.171Z,9.70
2023-03-05T22:35:45.421Z,10.43
2023-03-05T22:38:13.400Z,6.67
2023-03-05T22:40:44.600Z,9.77
2023-03-05T22:43:12.302Z,7.33
2023-03-05T22:45:40.048Z,7.27
2023-03-05T22:48:07.579Z,8.03
2023-03-05T22:50:34.754Z,7.30
2023-03-05T22:53:01.968Z,6.87
2023-03-05T22:55:29.132Z,9.07
2023-03-05T22:57:56.367Z,8.90
2023-03-05T23:00:23.926Z,9.60
2023-03-05T23:02:51.611Z,8.67
2023-03-05T23:05:19.126Z,8.87
2023-03-05T23:07:46.694Z,10.23
2023-03-05T23:10:18.829Z,9.47
2023-03-05T23:12:49.402Z,11.07
2023-03-05T23:15:18.250Z,11.53
2023-03-05T23:17:45.627Z,11.50
2023-03-05T23:20:16.836Z,11.90
2023-03-05T23:22:45.039Z,8.50
2023-03-05T23:25:13.190Z,8.67
2023-03-05T23:27:40.367Z,12.80
2023-03-05T23:30:12.403Z,11.10
2023-03-05T23:32:39.564Z,11.37
2023-03-05T23:35:06.868Z,14.43
2023-03-05T23:37:34.047Z,10.40
2023-03-05T23:40:01.223Z,8.87
2023-03-05T23:42:28.370Z,11.70
2023-03-05T23:44:55.589Z,11.83
2023-03-05T23:47:22.699Z,12.90
2023-03-05T23:49:49.839Z,11.97
2023-03-05T23:52:17.044Z,10.37
2023-03-05T23:54:44.188Z,11.30
2023-03-05T23:57:11.373Z,11.20
2023-03-05T23:59:38.817Z,8.87
